createdAt,value
2024-01-24T00:00:31.509Z,603.00
2024-01-24T00:01:31.448Z,607.00
2024-01-24T00:02:31.432Z,603.00
2024-01-24T00:03:31.499Z,606.00
2024-01-24T00:04:31.486Z,603.00
2024-01-24T00:05:31.474Z,604.00
2024-01-24T00:06:31.464Z,603.00
2024-01-24T00:07:31.436Z,601.00
2024-01-24T00:08:31.439Z,604.00
2024-01-24T00:09:31.457Z,603.00
2024-01-24T00:10:31.435Z,608.00
2024-01-24T00:11:31.436Z,600.00
2024-01-24T00:12:31.494Z,603.00
2024-01-24T00:13:31.469Z,602.00
2024-01-24T00:14:31.437Z,604.00
2024-01-24T00:15:31.462Z,603.00
2024-01-24T00:16:31.441Z,600.00
2024-01-24T00:17:31.486Z,605.00
2024-01-24T00:18:31.705Z,604.00
2024-01-24T00:19:31.621Z,606.00
2024-01-24T00:20:31.466Z,603.00
2024-01-24T00:21:31.467Z,600.00
2024-01-24T00:22:31.443Z,604.00
2024-01-24T00:23:31.452Z,603.00
2024-01-24T00:24:31.498Z,602.00
2024-01-24T00:25:31.498Z,602.00
2024-01-24T00:26:31.448Z,600.00
2024-01-24T00:27:31.494Z,604.00
2024-01-24T00:28:31.457Z,603.00
2024-01-24T00:29:31.468Z,603.00
2024-01-24T00:30:31.545Z,602.00
2024-01-24T00:31:31.486Z,604.00
2024-01-24T00:32:31.500Z,602.00
2024-01-24T00:33:31.517Z,603.00
2024-01-24T00:34:31.479Z,605.00
2024-01-24T00:35:31.483Z,605.00
2024-01-24T00:36:31.506Z,601.00
2024-01-24T00:37:31.484Z,603.00
2024-01-24T00:38:31.484Z,603.00
2024-01-24T00:39:31.516Z,600.00
2024-01-24T00:40:31.495Z,607.00
2024-01-24T00:41:31.505Z,604.00
2024-01-24T00:42:31.543Z,602.00
2024-01-24T00:43:31.486Z,606.00
2024-01-24T00:44:31.494Z,603.00
2024-01-24T00:45:31.528Z,606.00
2024-01-24T00:46:31.505Z,601.00
2024-01-24T00:47:31.549Z,607.00
2024-01-24T00:48:31.554Z,603.00
2024-01-24T00:49:31.548Z,605.00
2024-01-24T00:50:31.539Z,604.00
2024-01-24T00:51:31.568Z,604.00
2024-01-24T00:52:31.526Z,603.00
2024-01-24T00:53:31.521Z,603.00
2024-01-24T00:54:31.549Z,602.00
2024-01-24T00:55:31.507Z,603.00
2024-01-24T00:56:31.515Z,603.00
2024-01-24T00:57:31.529Z,604.00
2024-01-24T00:58:31.519Z,607.00
2024-01-24T00:59:31.520Z,607.00
2024-01-24T01:00:31.560Z,601.00
2024-01-24T01:01:31.548Z,604.00
2024-01-24T01:02:31.965Z,604.00
2024-01-24T01:03:31.620Z,605.00
2024-01-24T01:04:31.577Z,605.00
2024-01-24T01:05:31.611Z,602.00
2024-01-24T01:06:31.553Z,609.00
2024-01-24T01:07:31.523Z,605.00
2024-01-24T01:08:31.543Z,607.00
2024-01-24T01:09:31.593Z,605.00
2024-01-24T01:10:31.543Z,605.00
2024-01-24T01:11:31.535Z,606.00
2024-01-24T01:12:31.583Z,606.00
2024-01-24T01:13:31.543Z,605.00
2024-01-24T01:14:31.593Z,605.00
2024-01-24T01:15:31.664Z,601.00
2024-01-24T01:16:31.671Z,604.00
2024-01-24T01:17:31.748Z,610.00
2024-01-24T01:18:31.816Z,606.00
2024-01-24T01:19:31.805Z,604.00
2024-01-24T01:20:31.813Z,602.00
2024-01-24T01:21:31.880Z,600.00
2024-01-24T01:22:31.901Z,603.00
2024-01-24T01:23:31.965Z,603.00
2024-01-24T01:24:32.116Z,603.00
2024-01-24T01:25:32.075Z,602.00
2024-01-24T01:26:32.130Z,601.00
2024-01-24T01:27:32.260Z,609.00
2024-01-24T01:28:32.192Z,604.00
2024-01-24T01:29:32.229Z,601.00
2024-01-24T01:30:32.297Z,604.00
2024-01-24T01:31:32.328Z,600.00
2024-01-24T01:32:32.385Z,601.00
2024-01-24T01:33:32.613Z,604.00
2024-01-24T01:34:32.476Z,606.00
2024-01-24T01:35:32.448Z,602.00
2024-01-24T01:36:32.494Z,603.00
2024-01-24T01:37:32.500Z,601.00
2024-01-24T01:38:32.532Z,606.00
2024-01-24T01:39:32.595Z,606.00
2024-01-24T01:40:32.546Z,603.00
2024-01-24T01:41:32.607Z,601.00
2024-01-24T01:42:32.676Z,600.00
2024-01-24T01:43:32.631Z,607.00
2024-01-24T01:44:32.708Z,604.00
2024-01-24T01:45:32.737Z,605.00
2024-01-24T01:46:32.801Z,603.00
2024-01-24T01:47:32.869Z,607.00
2024-01-24T01:48:33.025Z,605.00
2024-01-24T01:49:33.062Z,608.00
2024-01-24T01:50:33.038Z,603.00
2024-01-24T01:51:33.102Z,606.00
2024-01-24T01:52:33.154Z,602.00
2024-01-24T01:53:33.212Z,602.00
2024-01-24T01:54:33.360Z,604.00
2024-01-24T01:55:33.392Z,606.00
2024-01-24T01:56:33.449Z,602.00
2024-01-24T01:57:33.598Z,604.00
2024-01-24T01:58:33.586Z,604.00
2024-01-24T01:59:33.627Z,605.00
2024-01-24T02:00:33.709Z,603.00
2024-01-24T02:01:33.773Z,606.00
2024-01-24T02:02:33.944Z,608.00
2024-01-24T02:03:34.130Z,603.00
2024-01-24T02:04:33.967Z,603.00
2024-01-24T02:05:36.111Z,606.00
2024-01-24T02:06:34.144Z,606.00
2024-01-24T02:07:34.178Z,607.00
2024-01-24T02:08:34.034Z,602.00
2024-01-24T02:09:34.072Z,606.00
2024-01-24T02:10:34.052Z,603.00
2024-01-24T02:11:34.046Z,602.00
2024-01-24T02:12:34.094Z,605.00
2024-01-24T02:13:34.039Z,601.00
2024-01-24T02:14:34.040Z,603.00
2024-01-24T02:15:34.155Z,608.00
2024-01-24T02:16:34.054Z,605.00
2024-01-24T02:17:34.084Z,605.00
2024-01-24T02:18:34.132Z,605.00
2024-01-24T02:19:34.119Z,605.00
2024-01-24T02:20:34.057Z,606.00
2024-01-24T02:21:34.089Z,602.00
2024-01-24T02:22:34.065Z,603.00
2024-01-24T02:23:34.059Z,607.00
2024-01-24T02:24:34.084Z,605.00
2024-01-24T02:25:34.049Z,606.00
2024-01-24T02:26:34.067Z,608.00
2024-01-24T02:27:34.057Z,603.00
2024-01-24T02:28:34.060Z,602.00
2024-01-24T02:29:34.068Z,606.00
2024-01-24T02:30:34.112Z,603.00
2024-01-24T02:31:34.083Z,601.00
2024-01-24T02:32:34.137Z,603.00
2024-01-24T02:33:34.178Z,606.00
2024-01-24T02:34:34.198Z,604.00
2024-01-24T02:35:34.093Z,602.00
2024-01-24T02:36:34.105Z,604.00
2024-01-24T02:37:34.057Z,606.00
2024-01-24T02:38:34.066Z,605.00
2024-01-24T02:39:34.109Z,602.00
2024-01-24T02:40:34.080Z,603.00
2024-01-24T02:41:34.086Z,602.00
2024-01-24T02:42:34.119Z,602.00
2024-01-24T02:43:34.141Z,605.00
2024-01-24T02:44:34.181Z,603.00
2024-01-24T02:45:34.285Z,604.00
2024-01-24T02:46:34.295Z,606.00
2024-01-24T02:47:34.353Z,601.00
2024-01-24T02:48:34.443Z,606.00
2024-01-24T02:49:34.659Z,603.00
2024-01-24T02:50:34.524Z,605.00
2024-01-24T02:51:34.561Z,604.00
2024-01-24T02:52:34.633Z,608.00
2024-01-24T02:53:34.648Z,603.00
2024-01-24T02:54:34.732Z,604.00
2024-01-24T02:55:34.777Z,602.00
2024-01-24T02:56:34.835Z,606.00
2024-01-24T02:57:34.941Z,604.00
2024-01-24T02:58:34.920Z,605.00
2024-01-24T02:59:34.964Z,603.00
2024-01-24T03:00:35.127Z,602.00
2024-01-24T03:01:35.109Z,604.00
2024-01-24T03:02:35.116Z,604.00
2024-01-24T03:03:35.251Z,606.00
2024-01-24T03:04:35.257Z,603.00
2024-01-24T03:05:35.286Z,602.00
2024-01-24T03:06:35.385Z,607.00
2024-01-24T03:07:35.409Z,602.00
2024-01-24T03:08:35.425Z,605.00
2024-01-24T03:09:35.495Z,604.00
2024-01-24T03:10:35.513Z,604.00
2024-01-24T03:11:35.553Z,606.00
2024-01-24T03:12:35.690Z,605.00
2024-01-24T03:13:35.660Z,608.00
2024-01-24T03:14:35.726Z,602.00
2024-01-24T03:15:35.770Z,607.00
2024-01-24T03:16:35.817Z,605.00
2024-01-24T03:17:35.886Z,604.00
2024-01-24T03:18:35.978Z,604.00
2024-01-24T03:19:36.116Z,603.00
2024-01-24T03:20:35.989Z,601.00
2024-01-24T03:21:36.050Z,603.00
2024-01-24T03:22:36.064Z,601.00
2024-01-24T03:23:36.107Z,604.00
2024-01-24T03:24:36.184Z,602.00
2024-01-24T03:25:36.194Z,608.00
2024-01-24T03:26:36.261Z,604.00
2024-01-24T03:27:36.309Z,603.00
2024-01-24T03:28:36.332Z,606.00
2024-01-24T03:29:36.372Z,603.00
2024-01-24T03:30:36.428Z,602.00
2024-01-24T03:31:36.458Z,602.00
2024-01-24T03:32:36.581Z,602.00
2024-01-24T03:33:36.555Z,601.00
2024-01-24T03:34:36.593Z,603.00
2024-01-24T03:35:36.605Z,606.00
2024-01-24T03:36:36.675Z,604.00
2024-01-24T03:37:36.692Z,604.00
2024-01-24T03:38:36.730Z,603.00
2024-01-24T03:39:36.832Z,603.00
2024-01-24T03:40:36.805Z,604.00
2024-01-24T03:41:36.824Z,605.00
2024-01-24T03:42:36.945Z,607.00
2024-01-24T03:43:36.908Z,605.00
2024-01-24T03:44:36.942Z,600.00
2024-01-24T03:45:36.978Z,605.00
2024-01-24T03:46:36.998Z,603.00
2024-01-24T03:47:37.069Z,604.00
2024-01-24T03:48:37.199Z,603.00
2024-01-24T03:49:37.141Z,603.00
2024-01-24T03:50:37.124Z,600.00
2024-01-24T03:51:37.194Z,602.00
2024-01-24T03:52:37.201Z,601.00
2024-01-24T03:53:37.242Z,605.00
2024-01-24T03:54:37.340Z,604.00
2024-01-24T03:55:37.304Z,604.00
2024-01-24T03:56:37.400Z,604.00
2024-01-24T03:57:37.513Z,602.00
2024-01-24T03:58:37.452Z,603.00
2024-01-24T03:59:37.457Z,603.00
2024-01-24T04:00:37.550Z,607.00
2024-01-24T04:01:37.582Z,605.00
2024-01-24T04:02:37.582Z,609.00
2024-01-24T04:03:37.655Z,608.00
2024-01-24T04:04:37.693Z,607.00
2024-01-24T04:05:37.670Z,607.00
2024-01-24T04:06:37.769Z,605.00
2024-01-24T04:07:37.758Z,603.00
2024-01-24T04:08:37.789Z,604.00
2024-01-24T04:09:37.901Z,602.00
2024-01-24T04:10:37.858Z,604.00
2024-01-24T04:11:37.879Z,604.00
2024-01-24T04:12:37.960Z,602.00
2024-01-24T04:13:37.954Z,605.00
2024-01-24T04:14:38.030Z,605.00
2024-01-24T04:15:38.079Z,604.00
2024-01-24T04:16:38.087Z,603.00
2024-01-24T04:17:38.114Z,606.00
2024-01-24T04:18:38.259Z,601.00
2024-01-24T04:19:38.264Z,604.00
2024-01-24T04:20:38.217Z,608.00
2024-01-24T04:21:38.285Z,603.00
2024-01-24T04:22:38.293Z,604.00
2024-01-24T04:23:38.303Z,602.00
2024-01-24T04:24:38.393Z,605.00
2024-01-24T04:25:38.373Z,603.00
2024-01-24T04:26:38.432Z,603.00
2024-01-24T04:27:38.504Z,603.00
2024-01-24T04:28:38.496Z,603.00
2024-01-24T04:29:38.508Z,604.00
2024-01-24T04:30:38.556Z,602.00
2024-01-24T04:31:38.563Z,602.00
2024-01-24T04:32:38.728Z,603.00
2024-01-24T04:33:38.764Z,606.00
2024-01-24T04:34:38.742Z,605.00
2024-01-24T04:35:38.718Z,600.00
2024-01-24T04:36:38.796Z,607.00
2024-01-24T04:37:38.813Z,607.00
2024-01-24T04:38:38.864Z,605.00
2024-01-24T04:39:38.945Z,607.00
2024-01-24T04:40:38.946Z,606.00
2024-01-24T04:41:41.290Z,602.00
2024-01-24T04:42:39.246Z,607.00
2024-01-24T04:43:39.223Z,604.00
2024-01-24T04:44:39.272Z,607.00
2024-01-24T04:45:39.360Z,608.00
2024-01-24T04:46:46.688Z,600.00
2024-01-24T04:47:46.745Z,600.00
2024-01-24T04:48:46.744Z,600.00
2024-01-24T04:49:46.808Z,600.00
2024-01-24T04:50:46.684Z,600.00
2024-01-24T04:51:46.726Z,604.00
2024-01-24T04:52:46.661Z,602.00
2024-01-24T04:53:46.684Z,605.00
2024-01-24T04:54:46.762Z,600.00
2024-01-24T04:55:46.679Z,600.00
2024-01-24T04:56:46.652Z,602.00
2024-01-24T04:57:46.706Z,604.00
2024-01-24T04:58:46.674Z,603.00
2024-01-24T04:59:52.964Z,605.00
2024-01-24T05:00:47.762Z,605.00
2024-01-24T05:01:46.719Z,605.00
2024-01-24T05:02:46.656Z,606.00
2024-01-24T05:03:46.785Z,605.00
2024-01-24T05:04:46.715Z,602.00
2024-01-24T05:05:48.700Z,605.00
2024-01-24T05:06:46.710Z,605.00
2024-01-24T05:07:46.685Z,604.00
2024-01-24T05:08:46.663Z,606.00
2024-01-24T05:09:46.694Z,605.00
2024-01-24T05:10:46.676Z,603.00
2024-01-24T05:11:46.672Z,604.00
2024-01-24T05:12:46.707Z,604.00
2024-01-24T05:13:46.695Z,606.00
2024-01-24T05:14:46.686Z,603.00
2024-01-24T05:15:46.678Z,608.00
2024-01-24T05:16:46.684Z,604.00
2024-01-24T05:17:46.716Z,607.00
2024-01-24T05:18:46.758Z,606.00
2024-01-24T05:19:46.728Z,606.00
2024-01-24T05:20:46.705Z,605.00
2024-01-24T05:21:46.741Z,605.00
2024-01-24T05:22:46.688Z,607.00
2024-01-24T05:23:47.609Z,606.00
2024-01-24T05:24:46.769Z,609.00
2024-01-24T05:25:46.746Z,606.00
2024-01-24T05:26:46.785Z,606.00
2024-01-24T05:27:46.832Z,606.00
2024-01-24T05:28:46.848Z,602.00
2024-01-24T05:29:47.064Z,603.00
2024-01-24T05:30:46.963Z,604.00
2024-01-24T05:31:46.928Z,604.00
2024-01-24T05:32:46.968Z,605.00
2024-01-24T05:33:47.039Z,601.00
2024-01-24T05:34:47.133Z,604.00
2024-01-24T05:35:47.036Z,607.00
2024-01-24T05:36:47.112Z,602.00
2024-01-24T05:37:47.090Z,606.00
2024-01-24T05:38:47.123Z,601.00
2024-01-24T05:39:47.168Z,605.00
2024-01-24T05:40:47.163Z,602.00
2024-01-24T05:41:47.201Z,605.00
2024-01-24T05:42:48.752Z,607.00
2024-01-24T05:43:47.232Z,604.00
2024-01-24T05:44:47.276Z,609.00
2024-01-24T05:45:47.351Z,605.00
2024-01-24T05:46:47.336Z,604.00
2024-01-24T05:47:47.504Z,607.00
2024-01-24T05:48:47.477Z,609.00
2024-01-24T05:49:47.433Z,605.00
2024-01-24T05:50:47.421Z,607.00
2024-01-24T05:51:47.489Z,606.00
2024-01-24T05:52:47.459Z,603.00
2024-01-24T05:53:47.468Z,606.00
2024-01-24T05:54:47.560Z,603.00
2024-01-24T05:55:47.539Z,610.00
2024-01-24T05:56:47.562Z,608.00
2024-01-24T05:57:47.757Z,610.00
2024-01-24T05:58:47.638Z,605.00
2024-01-24T05:59:47.676Z,606.00
2024-01-24T06:00:47.811Z,607.00
2024-01-24T06:01:47.803Z,607.00
2024-01-24T06:02:47.779Z,601.00
2024-01-24T06:03:48.047Z,603.00
2024-01-24T06:04:47.937Z,608.00
2024-01-24T06:05:47.934Z,605.00
2024-01-24T06:06:47.966Z,609.00
2024-01-24T06:07:47.999Z,610.00
2024-01-24T06:08:47.998Z,608.00
2024-01-24T06:09:48.042Z,608.00
2024-01-24T06:10:48.034Z,604.00
2024-01-24T06:11:49.081Z,606.00
2024-01-24T06:12:48.136Z,606.00
2024-01-24T06:13:48.116Z,605.00
2024-01-24T06:14:48.201Z,604.00
2024-01-24T06:15:48.201Z,604.00
2024-01-24T06:16:48.196Z,605.00
2024-01-24T06:17:48.328Z,604.00
2024-01-24T06:18:48.300Z,599.00
2024-01-24T06:19:48.275Z,605.00
2024-01-24T06:20:48.299Z,607.00
2024-01-24T06:21:48.305Z,607.00
2024-01-24T06:22:48.323Z,607.00
2024-01-24T06:23:48.373Z,605.00
2024-01-24T06:24:48.388Z,604.00
2024-01-24T06:25:48.330Z,605.00
2024-01-24T06:26:48.354Z,606.00
2024-01-24T06:27:48.403Z,605.00
2024-01-24T06:28:48.399Z,605.00
2024-01-24T06:30:17.070Z,605.00
2024-01-24T06:30:49.491Z,605.00
2024-01-24T06:31:48.407Z,605.00
2024-01-24T06:32:48.416Z,605.00
2024-01-24T06:33:48.540Z,608.00
2024-01-24T06:34:48.463Z,603.00
2024-01-24T06:35:48.437Z,606.00
2024-01-24T06:36:48.488Z,606.00
2024-01-24T06:37:48.440Z,605.00
2024-01-24T06:38:48.441Z,611.00
2024-01-24T06:39:48.442Z,609.00
2024-01-24T06:40:48.503Z,608.00
2024-01-24T06:41:48.443Z,612.00
2024-01-24T06:42:48.492Z,608.00
2024-01-24T06:43:48.422Z,612.00
2024-01-24T06:44:48.432Z,606.00
2024-01-24T06:45:48.435Z,605.00
2024-01-24T06:46:48.501Z,609.00
2024-01-24T06:47:48.515Z,614.00
2024-01-24T06:48:48.614Z,625.00
2024-01-24T06:49:48.460Z,628.00
2024-01-24T06:50:48.443Z,632.00
2024-01-24T06:51:48.570Z,634.00
2024-01-24T06:52:48.666Z,638.00
2024-01-24T06:53:48.685Z,644.00
2024-01-24T06:54:48.671Z,649.00
2024-01-24T06:55:48.728Z,654.00
2024-01-24T06:56:51.558Z,662.00
2024-01-24T06:57:48.956Z,662.00
2024-01-24T06:58:48.803Z,675.00
2024-01-24T06:59:48.841Z,722.00
2024-01-24T07:00:49.292Z,805.00
2024-01-24T07:01:49.046Z,792.00
2024-01-24T07:02:49.816Z,760.00
2024-01-24T07:03:48.830Z,709.00
2024-01-24T07:04:49.324Z,664.00
2024-01-24T07:05:49.051Z,662.00
2024-01-24T07:06:48.948Z,664.00
2024-01-24T07:07:48.803Z,663.00
2024-01-24T07:08:48.803Z,673.00
2024-01-24T07:09:48.857Z,671.00
2024-01-24T07:10:48.802Z,699.00
2024-01-24T07:11:48.904Z,716.00
2024-01-24T07:12:48.907Z,733.00
2024-01-24T07:13:48.867Z,755.00
2024-01-24T07:14:52.561Z,785.00
2024-01-24T07:15:48.958Z,786.00
2024-01-24T07:16:48.929Z,793.00
2024-01-24T07:17:48.948Z,814.00
2024-01-24T07:18:49.014Z,846.00
2024-01-24T07:19:49.235Z,897.00
2024-01-24T07:20:48.941Z,916.00
2024-01-24T07:21:48.928Z,935.00
2024-01-24T07:22:48.936Z,950.00
2024-01-24T07:23:48.896Z,965.00
2024-01-24T07:24:48.974Z,972.00
2024-01-24T07:25:48.915Z,981.00
2024-01-24T07:26:48.933Z,987.00
2024-01-24T07:27:48.996Z,995.00
2024-01-24T07:28:48.937Z,1001.00
2024-01-24T07:29:48.948Z,1011.00
2024-01-24T07:30:49.025Z,1018.00
2024-01-24T07:31:49.000Z,1029.00
2024-01-24T07:32:49.016Z,1039.00
2024-01-24T07:33:49.004Z,1043.00
2024-01-24T07:34:49.080Z,1052.00
2024-01-24T07:35:48.948Z,1062.00
2024-01-24T07:36:48.996Z,1069.00
2024-01-24T07:37:49.062Z,1073.00
2024-01-24T07:38:48.945Z,1080.00
2024-01-24T07:39:48.992Z,1092.00
2024-01-24T07:40:48.943Z,1101.00
2024-01-24T07:41:48.954Z,1107.00
2024-01-24T07:42:49.060Z,1112.00
2024-01-24T07:43:48.975Z,1116.00
2024-01-24T07:44:49.006Z,1123.00
2024-01-24T07:45:49.002Z,1133.00
2024-01-24T07:46:48.996Z,1140.00
2024-01-24T07:47:49.005Z,1143.00
2024-01-24T07:48:49.039Z,1142.00
2024-01-24T07:49:49.145Z,1148.00
2024-01-24T07:50:48.971Z,1160.00
2024-01-24T07:51:50.480Z,1159.00
2024-01-24T07:52:49.029Z,1160.00
2024-01-24T07:53:48.976Z,1163.00
2024-01-24T07:54:49.042Z,1165.00
2024-01-24T07:55:56.147Z,1175.00
2024-01-24T07:56:50.147Z,1161.00
2024-01-24T07:57:49.097Z,1166.00
2024-01-24T07:58:49.153Z,1174.00
2024-01-24T07:59:48.978Z,1189.00
2024-01-24T08:00:49.137Z,1206.00
2024-01-24T08:01:49.881Z,1209.00
2024-01-24T08:02:50.938Z,1209.00
2024-01-24T08:03:50.406Z,1214.00
2024-01-24T08:04:49.094Z,1215.00
2024-01-24T08:05:49.389Z,1216.00
2024-01-24T08:06:49.424Z,1213.00
2024-01-24T08:07:48.972Z,1216.00
2024-01-24T08:08:48.994Z,1210.00
2024-01-24T08:09:49.041Z,1211.00
2024-01-24T08:10:49.065Z,1211.00
2024-01-24T08:11:49.260Z,1204.00
2024-01-24T08:12:49.192Z,1203.00
2024-01-24T08:13:49.219Z,1199.00
2024-01-24T08:14:49.295Z,1201.00
2024-01-24T08:15:49.366Z,1195.00
2024-01-24T08:16:49.422Z,1194.00
2024-01-24T08:17:49.515Z,1192.00
2024-01-24T08:18:49.650Z,1185.00
2024-01-24T08:19:49.712Z,1192.00
2024-01-24T08:20:49.666Z,1186.00
2024-01-24T08:21:49.770Z,1186.00
2024-01-24T08:22:49.791Z,1183.00
2024-01-24T08:23:51.827Z,1175.00
2024-01-24T08:24:50.025Z,1173.00
2024-01-24T08:25:49.986Z,1174.00
2024-01-24T08:26:50.080Z,1169.00
2024-01-24T08:27:50.185Z,1172.00
2024-01-24T08:28:50.245Z,1166.00
2024-01-24T08:29:50.353Z,1164.00
2024-01-24T08:30:50.404Z,1169.00
2024-01-24T08:31:50.435Z,1158.00
2024-01-24T08:32:50.547Z,1157.00
2024-01-24T08:33:52.567Z,1159.00
2024-01-24T08:34:50.724Z,1151.00
2024-01-24T08:35:50.682Z,1154.00
2024-01-24T08:36:50.831Z,1145.00
2024-01-24T08:37:50.812Z,1144.00
2024-01-24T08:38:50.892Z,1144.00
2024-01-24T08:39:51.002Z,1139.00
2024-01-24T08:40:51.033Z,1134.00
2024-01-24T08:41:51.105Z,1136.00
2024-01-24T08:42:51.256Z,1135.00
2024-01-24T08:43:51.221Z,1135.00
2024-01-24T08:44:51.316Z,1130.00
2024-01-24T08:45:51.713Z,1129.00
2024-01-24T08:46:51.449Z,1131.00
2024-01-24T08:47:51.724Z,1121.00
2024-01-24T08:48:51.588Z,1115.00
2024-01-24T08:49:51.803Z,1114.00
2024-01-24T08:50:51.676Z,1105.00
2024-01-24T08:51:51.771Z,1090.00
2024-01-24T08:52:51.737Z,1061.00
2024-01-24T08:53:51.742Z,1045.00
2024-01-24T08:54:51.826Z,1016.00
2024-01-24T08:55:51.799Z,970.00
2024-01-24T08:56:52.080Z,962.00
2024-01-24T08:57:51.883Z,916.00
2024-01-24T08:58:51.920Z,904.00
2024-01-24T08:59:51.970Z,878.00
2024-01-24T09:00:52.114Z,869.00
2024-01-24T09:01:52.081Z,851.00
2024-01-24T09:02:52.348Z,835.00
2024-01-24T09:03:52.206Z,817.00
2024-01-24T09:04:52.160Z,807.00
2024-01-24T09:05:52.113Z,791.00
2024-01-24T09:06:52.059Z,779.00
2024-01-24T09:07:52.033Z,757.00
2024-01-24T09:08:52.064Z,748.00
2024-01-24T09:09:52.114Z,727.00
2024-01-24T09:10:52.059Z,706.00
2024-01-24T09:11:56.886Z,694.00
2024-01-24T09:12:53.120Z,694.00
2024-01-24T09:13:52.038Z,669.00
2024-01-24T09:14:52.060Z,664.00
2024-01-24T09:15:52.086Z,663.00
2024-01-24T09:16:52.052Z,654.00
2024-01-24T09:17:52.288Z,648.00
2024-01-24T09:18:52.267Z,643.00
2024-01-24T09:20:00.223Z,600.00
2024-01-24T09:20:59.889Z,600.00
2024-01-24T09:22:00.045Z,600.00
2024-01-24T09:22:59.881Z,600.00
2024-01-24T09:23:59.870Z,600.00
2024-01-24T09:25:00.516Z,600.00
2024-01-24T09:25:59.885Z,600.00
2024-01-24T09:26:59.898Z,603.00
2024-01-24T09:27:59.984Z,601.00
2024-01-24T09:28:59.892Z,600.00
2024-01-24T09:29:59.871Z,600.00
2024-01-24T09:30:59.938Z,600.00
2024-01-24T09:31:59.895Z,602.00
2024-01-24T09:33:00.044Z,601.00
2024-01-24T09:34:00.151Z,601.00
2024-01-24T09:35:00.033Z,600.00
2024-01-24T09:35:59.952Z,604.00
2024-01-24T09:36:59.908Z,602.00
2024-01-24T09:37:59.886Z,600.00
2024-01-24T09:38:59.899Z,600.00
2024-01-24T09:40:00.021Z,600.00
2024-01-24T09:40:59.928Z,602.00
2024-01-24T09:41:59.895Z,600.00
2024-01-24T09:43:00.049Z,600.00
2024-01-24T09:43:59.894Z,605.00
2024-01-24T09:44:59.911Z,609.00
2024-01-24T09:45:59.930Z,619.00
2024-01-24T09:46:59.937Z,621.00
2024-01-24T09:48:00.017Z,623.00
2024-01-24T09:49:00.144Z,620.00
2024-01-24T09:50:00.121Z,625.00
2024-01-24T09:51:00.133Z,625.00
2024-01-24T09:52:00.350Z,632.00
2024-01-24T09:53:00.191Z,632.00
2024-01-24T09:54:00.253Z,638.00
2024-01-24T09:55:00.660Z,637.00
2024-01-24T09:56:00.359Z,638.00
2024-01-24T09:57:00.444Z,646.00
2024-01-24T09:58:00.538Z,662.00
2024-01-24T09:59:00.433Z,684.00
2024-01-24T10:00:00.480Z,695.00
2024-01-24T10:01:00.556Z,720.00
2024-01-24T10:02:00.676Z,730.00
2024-01-24T10:03:00.606Z,749.00
2024-01-24T10:04:00.662Z,762.00
2024-01-24T10:05:00.578Z,759.00
2024-01-24T10:06:00.630Z,786.00
2024-01-24T10:07:00.698Z,809.00
2024-01-24T10:08:00.600Z,819.00
2024-01-24T10:09:00.669Z,832.00
2024-01-24T10:10:00.930Z,837.00
2024-01-24T10:11:00.782Z,844.00
2024-01-24T10:12:00.808Z,846.00
2024-01-24T10:13:00.950Z,856.00
2024-01-24T10:14:00.942Z,869.00
2024-01-24T10:15:01.005Z,879.00
2024-01-24T10:16:01.262Z,885.00
2024-01-24T10:17:01.105Z,873.00
2024-01-24T10:18:01.252Z,881.00
2024-01-24T10:19:01.230Z,901.00
2024-01-24T10:20:01.350Z,908.00
2024-01-24T10:21:01.219Z,921.00
2024-01-24T10:22:01.290Z,931.00
2024-01-24T10:23:01.201Z,937.00
2024-01-24T10:24:01.312Z,930.00
2024-01-24T10:25:01.273Z,950.00
2024-01-24T10:26:01.257Z,953.00
2024-01-24T10:27:01.288Z,957.00
2024-01-24T10:28:01.340Z,964.00
2024-01-24T10:29:01.296Z,969.00
2024-01-24T10:30:01.348Z,974.00
2024-01-24T10:31:01.447Z,974.00
2024-01-24T10:32:01.446Z,987.00
2024-01-24T10:33:01.648Z,990.00
2024-01-24T10:34:01.704Z,1002.00
2024-01-24T10:35:01.886Z,1002.00
2024-01-24T10:36:05.372Z,1005.00
2024-01-24T10:37:02.776Z,1006.00
2024-01-24T10:38:01.735Z,1008.00
2024-01-24T10:39:01.774Z,1012.00
2024-01-24T10:40:01.773Z,1017.00
2024-01-24T10:41:01.753Z,1039.00
2024-01-24T10:42:02.729Z,1043.00
2024-01-24T10:43:01.833Z,1027.00
2024-01-24T10:44:01.747Z,1043.00
2024-01-24T10:45:01.759Z,1049.00
2024-01-24T10:46:01.851Z,1072.00
2024-01-24T10:47:01.763Z,1076.00
2024-01-24T10:48:01.882Z,1101.00
2024-01-24T10:49:01.860Z,1110.00
2024-01-24T10:50:01.925Z,1127.00
2024-01-24T10:51:01.809Z,1141.00
2024-01-24T10:52:01.973Z,1153.00
2024-01-24T10:53:01.935Z,1145.00
2024-01-24T10:54:01.954Z,1157.00
2024-01-24T10:55:02.065Z,1162.00
2024-01-24T10:56:01.971Z,1166.00
2024-01-24T10:57:02.006Z,1171.00
2024-01-24T10:58:02.075Z,1165.00
2024-01-24T10:59:02.078Z,1159.00
2024-01-24T11:00:02.131Z,1162.00
2024-01-24T11:01:02.274Z,1153.00
2024-01-24T11:02:02.247Z,1149.00
2024-01-24T11:03:02.350Z,1142.00
2024-01-24T11:04:02.381Z,1120.00
2024-01-24T11:05:02.481Z,1109.00
2024-01-24T11:06:02.495Z,1107.00
2024-01-24T11:07:02.654Z,1111.00
2024-01-24T11:08:02.617Z,1106.00
2024-01-24T11:09:02.710Z,1095.00
2024-01-24T11:10:02.960Z,1082.00
2024-01-24T11:11:02.830Z,1070.00
2024-01-24T11:12:02.917Z,1047.00
2024-01-24T11:13:03.137Z,1028.00
2024-01-24T11:14:03.029Z,1033.00
2024-01-24T11:15:03.121Z,1030.00
2024-01-24T11:16:04.804Z,1020.00
2024-01-24T11:17:03.155Z,1004.00
2024-01-24T11:18:03.166Z,1000.00
2024-01-24T11:19:03.424Z,988.00
2024-01-24T11:20:03.252Z,979.00
2024-01-24T11:21:03.154Z,972.00
2024-01-24T11:22:10.070Z,965.00
2024-01-24T11:23:04.153Z,966.00
2024-01-24T11:24:03.134Z,960.00
2024-01-24T11:25:03.351Z,948.00
2024-01-24T11:26:03.143Z,943.00
2024-01-24T11:27:03.177Z,924.00
2024-01-24T11:28:03.219Z,916.00
2024-01-24T11:29:03.145Z,907.00
2024-01-24T11:30:03.143Z,896.00
2024-01-24T11:31:03.191Z,896.00
2024-01-24T11:32:05.302Z,882.00
2024-01-24T11:33:03.209Z,881.00
2024-01-24T11:34:03.203Z,873.00
2024-01-24T11:35:03.311Z,865.00
2024-01-24T11:36:03.139Z,858.00
2024-01-24T11:37:03.228Z,855.00
2024-01-24T11:39:03.178Z,844.00
2024-01-24T11:40:03.289Z,839.00
2024-01-24T11:41:03.187Z,826.00
2024-01-24T11:42:03.206Z,803.00
2024-01-24T11:43:03.366Z,801.00
2024-01-24T11:44:03.174Z,780.00
2024-01-24T11:45:03.214Z,797.00
2024-01-24T11:46:03.233Z,791.00
2024-01-24T11:47:03.181Z,778.00
2024-01-24T11:48:03.261Z,776.00
2024-01-24T11:49:03.281Z,770.00
2024-01-24T11:50:03.244Z,766.00
2024-01-24T11:51:03.188Z,774.00
2024-01-24T11:52:03.263Z,769.00
2024-01-24T11:53:03.214Z,756.00
2024-01-24T11:54:03.225Z,767.00
2024-01-24T11:55:03.312Z,759.00
2024-01-24T11:56:03.238Z,759.00
2024-01-24T11:57:03.207Z,738.00
2024-01-24T11:58:03.235Z,738.00
2024-01-24T11:59:03.202Z,717.00
2024-01-24T12:00:03.211Z,717.00
2024-01-24T12:01:03.294Z,700.00
2024-01-24T12:02:03.201Z,701.00
2024-01-24T12:03:03.240Z,693.00
2024-01-24T12:04:03.273Z,690.00
2024-01-24T12:05:03.294Z,693.00
2024-01-24T12:06:03.351Z,678.00
2024-01-24T12:07:03.373Z,675.00
2024-01-24T12:08:03.218Z,674.00
2024-01-24T12:09:03.238Z,677.00
2024-01-24T12:10:03.390Z,668.00
2024-01-24T12:11:03.229Z,668.00
2024-01-24T12:12:03.306Z,668.00
2024-01-24T12:13:03.290Z,663.00
2024-01-24T12:14:03.233Z,662.00
2024-01-24T12:15:03.235Z,656.00
2024-01-24T12:16:03.297Z,657.00
2024-01-24T12:17:03.252Z,653.00
2024-01-24T12:18:03.304Z,650.00
2024-01-24T12:19:03.379Z,648.00
2024-01-24T12:20:03.345Z,650.00
2024-01-24T12:21:03.486Z,646.00
2024-01-24T12:22:03.249Z,643.00
2024-01-24T12:23:03.264Z,641.00
2024-01-24T12:24:03.246Z,641.00
2024-01-24T12:25:03.297Z,632.00
2024-01-24T12:26:03.272Z,636.00